»·PEaware :: SWA343 KSAN-KLAS

SWA343 :: KSAN-KLAS

FLIGHT INFORMATION

Flight Status: Arrived
Operator:
Southwest Airlines
More flights by this operator :: More flights under this callsign
Pilot: Hyatt B. (30410)
Aircraft: BOEING 737-700
(B737)
More flights by this aircraft type
Origin: KSAN San Diego Intl-Lindbergh
United States
Destination: KLAS McCarran Intl
United States
More flights between these airports :: More routes between these airports
Route: PADRZ2 CHKNN SEBBY YELAH MISEN KEPEC6
File this flight plan on PilotEdge
Remarks:
Altitude:
(Current/Filed)
33,000ft
Speed:
(Current/Filed)
430kts
Departed: 08-Aug-20 07:42 PM
Arrived: 08-Aug-20 08:31 PM
Distance/Time
Traveled:
224nm/0:48
Distance/Time
To Go:
Arrived

Flight Plot

Page will automatically refresh every two minutes.

Flight plan parsing failed; only flown route is shown


Map Options




Map Legend


Flown Route
Filed Route
Departure Airport
Arrival Airport
Navaid (VOR, NDB)
Fix

Horizontal Profiles

Position Reports

Time Latitude Longitude Heading Altitude Ground
Speed
08-Aug-20 19:25 32.733851 -117.198126 207 20ft 0kts
08-Aug-20 19:26 32.733851 -117.198126 207 20ft 0kts
08-Aug-20 19:27 32.733851 -117.198126 207 20ft 0kts
08-Aug-20 19:28 32.733851 -117.198126 207 20ft 0kts
08-Aug-20 19:29 32.733851 -117.198126 207 20ft 0kts
08-Aug-20 19:30 32.733851 -117.198126 207 20ft 0kts
08-Aug-20 19:31 32.733851 -117.198126 207 20ft 0kts
08-Aug-20 19:32 32.734271 -117.198023 165 20ft 2kts
08-Aug-20 19:33 32.734652 -117.198435 106 20ft 0kts
08-Aug-20 19:34 32.734669 -117.198512 104 20ft 0kts
08-Aug-20 19:35 32.734669 -117.198512 104 20ft 0kts
08-Aug-20 19:36 32.733862 -117.195179 105 21ft 19kts
08-Aug-20 19:37 32.732205 -117.188310 106 20ft 21kts
08-Aug-20 19:38 32.730465 -117.181169 106 19ft 22kts
08-Aug-20 19:39 32.729487 -117.176838 80 23ft 0kts
08-Aug-20 19:40 32.730195 -117.175960 312 26ft 4kts
08-Aug-20 19:41 32.737368 -117.205432 286 436ft 210kts
08-Aug-20 19:42 32.772227 -117.265869 301 2991ft 235kts
08-Aug-20 19:43 32.808264 -117.332305 306 6327ft 248kts
08-Aug-20 19:44 32.851271 -117.398461 306 9315ft 263kts
08-Aug-20 19:45 32.896812 -117.469154 306 12037ft 278kts
08-Aug-20 19:46 32.947253 -117.547726 305 13840ft 335kts
08-Aug-20 19:47 33.005733 -117.638902 305 16655ft 356kts
08-Aug-20 19:48 33.068237 -117.733118 312 19398ft 372kts
08-Aug-20 19:49 33.148026 -117.815211 316 21436ft 386kts
08-Aug-20 19:50 33.231136 -117.898474 317 23343ft 396kts
08-Aug-20 19:51 33.317433 -117.982445 316 25088ft 404kts
08-Aug-20 19:52 33.405027 -118.068148 316 26659ft 412kts
08-Aug-20 19:53 33.494512 -118.155928 316 28117ft 419kts
08-Aug-20 19:54 33.587800 -118.241238 326 29445ft 432kts
08-Aug-20 19:55 33.699237 -118.299251 346 30611ft 451kts
08-Aug-20 19:56 33.813405 -118.242804 48 31856ft 476kts
08-Aug-20 19:57 33.891168 -118.113595 53 32956ft 481kts
08-Aug-20 19:58 33.970519 -117.979591 53 32988ft 493kts
08-Aug-20 19:59 34.049418 -117.845854 53 33011ft 491kts
08-Aug-20 20:00 34.132048 -117.714797 48 33009ft 491kts
08-Aug-20 20:01 34.219207 -117.587768 48 33007ft 491kts
08-Aug-20 20:02 34.305802 -117.460719 48 33015ft 490kts
08-Aug-20 20:03 34.392253 -117.333443 49 33027ft 489kts
08-Aug-20 20:04 34.478595 -117.205927 49 33019ft 490kts
08-Aug-20 20:05 34.564764 -117.078141 49 33025ft 490kts
08-Aug-20 20:06 34.650943 -116.949884 49 32985ft 493kts
08-Aug-20 20:07 34.737585 -116.820455 48 32956ft 495kts
08-Aug-20 20:08 34.823996 -116.690930 48 32149ft 503kts
08-Aug-20 20:09 34.922805 -116.578534 38 28967ft 467kts
08-Aug-20 20:10 35.020061 -116.483969 37 26287ft 432kts
08-Aug-20 20:11 35.113192 -116.390402 43 24025ft 420kts
08-Aug-20 20:12 35.196166 -116.286493 45 24026ft 434kts
08-Aug-20 20:13 35.280422 -116.180771 45 24025ft 434kts
08-Aug-20 20:14 35.364261 -116.075225 45 22602ft 428kts
08-Aug-20 20:15 35.444753 -115.973570 45 19640ft 397kts
08-Aug-20 20:16 35.518583 -115.880041 45 17201ft 387kts
08-Aug-20 20:17 35.590601 -115.788566 45 14752ft 356kts
08-Aug-20 20:18 35.656943 -115.704011 45 13334ft 335kts
08-Aug-20 20:19 35.716093 -115.621342 56 12755ft 326kts
08-Aug-20 20:20 35.762349 -115.530022 58 10853ft 308kts
08-Aug-20 20:21 35.806415 -115.440827 58 8952ft 298kts
08-Aug-20 20:22 35.863181 -115.376508 6 7411ft 286kts
08-Aug-20 20:23 35.936406 -115.370957 1 7019ft 272kts
08-Aug-20 20:25 36.012316 -115.369594 1 7012ft 256kts
08-Aug-20 20:26 36.065693 -115.327288 67 5940ft 221kts
08-Aug-20 20:27 36.073151 -115.262922 90 4247ft 155kts
08-Aug-20 20:28 36.073440 -115.210421 89 3288ft 149kts
08-Aug-20 20:29 36.073600 -115.159520 88 2173ft 135kts
08-Aug-20 20:30 36.073695 -115.132022 88 2064ft 44kts
08-Aug-20 20:31 36.074313 -115.126020 6 2048ft 8kts
08-Aug-20 20:32 36.075320 -115.125991 359 2048ft 2kts
08-Aug-20 20:33 36.077316 -115.126017 356 2046ft 0kts
08-Aug-20 20:34 36.078280 -115.127297 271 2044ft 11kts
08-Aug-20 20:35 36.078493 -115.131410 325 2054ft 11kts
08-Aug-20 20:36 36.080403 -115.134293 271 2059ft 6kts
08-Aug-20 20:37 36.080408 -115.134860 270 2061ft 0kts
08-Aug-20 20:38 36.080408 -115.134860 270 2061ft 0kts
08-Aug-20 20:39 36.080408 -115.134860 270 2061ft 0kts
08-Aug-20 20:40 36.080408 -115.134860 270 2061ft 0kts
08-Aug-20 20:41 36.073156 -115.264893 90 4281ft 155kts
08-Aug-20 20:42 36.073644 -115.153857 89 2137ft 124kts

Navigation Log

Ident Type
Flight plan parsing failed, navigation log unavailable